sensor_id;sensor_type;location;lat;lon;timestamp;P1;durP1;ratioP1;P2;durP2;ratioP2
49784;SDS011;35679;38.732;-121.358;2022-09-13T00:00:48;18.75;;;13.60;;
49784;SDS011;35679;38.732;-121.358;2022-09-13T00:03:40;18.45;;;13.77;;
49784;SDS011;35679;38.732;-121.358;2022-09-13T00:06:29;18.17;;;14.13;;
49784;SDS011;35679;38.732;-121.358;2022-09-13T00:09:18;18.13;;;13.90;;
49784;SDS011;35679;38.732;-121.358;2022-09-13T00:12:08;17.35;;;13.65;;
49784;SDS011;35679;38.732;-121.358;2022-09-13T00:14:57;16.77;;;12.77;;
49784;SDS011;35679;38.732;-121.358;2022-09-13T00:17:46;18.98;;;13.60;;
49784;SDS011;35679;38.732;-121.358;2022-09-13T00:20:36;17.20;;;14.00;;
49784;SDS011;35679;38.732;-121.358;2022-09-13T00:23:27;18.85;;;13.75;;
49784;SDS011;35679;38.732;-121.358;2022-09-13T00:26:18;17.33;;;13.13;;
49784;SDS011;35679;38.732;-121.358;2022-09-13T00:29:12;18.05;;;13.82;;
49784;SDS011;35679;38.732;-121.358;2022-09-13T00:32:01;18.10;;;13.45;;
49784;SDS011;35679;38.732;-121.358;2022-09-13T00:34:51;18.15;;;13.60;;
49784;SDS011;35679;38.732;-121.358;2022-09-13T00:37:40;17.35;;;13.20;;
49784;SDS011;35679;38.732;-121.358;2022-09-13T00:40:30;18.45;;;14.40;;
49784;SDS011;35679;38.732;-121.358;2022-09-13T00:46:43;19.45;;;14.13;;
49784;SDS011;35679;38.732;-121.358;2022-09-13T00:49:37;18.35;;;14.00;;
49784;SDS011;35679;38.732;-121.358;2022-09-13T00:52:28;19.67;;;14.30;;
49784;SDS011;35679;38.732;-121.358;2022-09-13T00:58:12;18.13;;;13.32;;
49784;SDS011;35679;38.732;-121.358;2022-09-13T01:01:11;17.63;;;13.50;;
49784;SDS011;35679;38.732;-121.358;2022-09-13T01:04:02;19.33;;;14.15;;
49784;SDS011;35679;38.732;-121.358;2022-09-13T01:06:58;19.00;;;14.00;;
49784;SDS011;35679;38.732;-121.358;2022-09-13T01:09:52;20.77;;;14.13;;
49784;SDS011;35679;38.732;-121.358;2022-09-13T01:12:44;19.10;;;14.20;;
49784;SDS011;35679;38.732;-121.358;2022-09-13T01:15:43;21.27;;;13.93;;
49784;SDS011;35679;38.732;-121.358;2022-09-13T01:18:32;18.88;;;14.55;;
49784;SDS011;35679;38.732;-121.358;2022-09-13T01:21:41;18.50;;;14.25;;
49784;SDS011;35679;38.732;-121.358;2022-09-13T01:27:52;18.77;;;14.35;;
49784;SDS011;35679;38.732;-121.358;2022-09-13T01:31:37;19.23;;;14.75;;
49784;SDS011;35679;38.732;-121.358;2022-09-13T01:34:53;20.90;;;14.88;;
49784;SDS011;35679;38.732;-121.358;2022-09-13T01:41:05;19.58;;;14.02;;
49784;SDS011;35679;38.732;-121.358;2022-09-13T01:47:31;18.40;;;14.27;;
49784;SDS011;35679;38.732;-121.358;2022-09-13T01:53:29;20.00;;;14.52;;
49784;SDS011;35679;38.732;-121.358;2022-09-13T01:59:53;19.42;;;14.25;;
49784;SDS011;35679;38.732;-121.358;2022-09-13T02:08:47;18.30;;;13.88;;
49784;SDS011;35679;38.732;-121.358;2022-09-13T02:11:41;20.08;;;14.50;;
49784;SDS011;35679;38.732;-121.358;2022-09-13T02:14:38;17.60;;;13.85;;
49784;SDS011;35679;38.732;-121.358;2022-09-13T02:17:30;19.65;;;14.48;;
49784;SDS011;35679;38.732;-121.358;2022-09-13T02:20:29;20.63;;;14.60;;
49784;SDS011;35679;38.732;-121.358;2022-09-13T02:23:25;18.27;;;13.23;;
49784;SDS011;35679;38.732;-121.358;2022-09-13T02:26:21;19.33;;;14.38;;
49784;SDS011;35679;38.732;-121.358;2022-09-13T02:29:14;18.45;;;14.25;;
49784;SDS011;35679;38.732;-121.358;2022-09-13T02:32:13;19.75;;;14.18;;
49784;SDS011;35679;38.732;-121.358;2022-09-13T02:35:21;17.05;;;13.52;;
49784;SDS011;35679;38.732;-121.358;2022-09-13T02:38:26;17.25;;;13.70;;
49784;SDS011;35679;38.732;-121.358;2022-09-13T02:44:43;20.08;;;14.35;;
49784;SDS011;35679;38.732;-121.358;2022-09-13T02:51:01;18.13;;;13.85;;
49784;SDS011;35679;38.732;-121.358;2022-09-13T02:54:40;18.77;;;13.75;;
49784;SDS011;35679;38.732;-121.358;2022-09-13T02:57:29;18.05;;;13.20;;
49784;SDS011;35679;38.732;-121.358;2022-09-13T03:00:28;18.33;;;13.13;;
49784;SDS011;35679;38.732;-121.358;2022-09-13T03:03:19;17.90;;;13.52;;
49784;SDS011;35679;38.732;-121.358;2022-09-13T03:06:08;17.33;;;12.90;;
49784;SDS011;35679;38.732;-121.358;2022-09-13T03:09:01;18.08;;;13.45;;
49784;SDS011;35679;38.732;-121.358;2022-09-13T03:11:55;17.85;;;13.05;;
49784;SDS011;35679;38.732;-121.358;2022-09-13T03:21:49;17.55;;;12.85;;
49784;SDS011;35679;38.732;-121.358;2022-09-13T03:31:32;14.55;;;11.02;;
49784;SDS011;35679;38.732;-121.358;2022-09-13T03:37:54;14.38;;;11.65;;
49784;SDS011;35679;38.732;-121.358;2022-09-13T03:40:50;17.30;;;11.95;;
49784;SDS011;35679;38.732;-121.358;2022-09-13T03:46:55;13.77;;;10.25;;
49784;SDS011;35679;38.732;-121.358;2022-09-13T03:49:48;14.80;;;10.93;;
49784;SDS011;35679;38.732;-121.358;2022-09-13T03:52:39;11.48;;;8.15;;
49784;SDS011;35679;38.732;-121.358;2022-09-13T03:55:33;14.65;;;10.50;;
49784;SDS011;35679;38.732;-121.358;2022-09-13T03:58:26;14.77;;;9.82;;
49784;SDS011;35679;38.732;-121.358;2022-09-13T04:01:19;15.80;;;10.52;;
49784;SDS011;35679;38.732;-121.358;2022-09-13T04:04:10;14.90;;;10.27;;
49784;SDS011;35679;38.732;-121.358;2022-09-13T04:07:00;15.18;;;11.07;;
49784;SDS011;35679;38.732;-121.358;2022-09-13T04:09:51;14.00;;;10.43;;
49784;SDS011;35679;38.732;-121.358;2022-09-13T04:12:40;14.77;;;9.32;;
49784;SDS011;35679;38.732;-121.358;2022-09-13T04:15:30;12.40;;;10.15;;
49784;SDS011;35679;38.732;-121.358;2022-09-13T04:18:20;12.25;;;9.18;;
49784;SDS011;35679;38.732;-121.358;2022-09-13T04:21:09;13.00;;;9.60;;
49784;SDS011;35679;38.732;-121.358;2022-09-13T04:23:59;12.05;;;9.07;;
49784;SDS011;35679;38.732;-121.358;2022-09-13T04:26:49;12.48;;;8.93;;
49784;SDS011;35679;38.732;-121.358;2022-09-13T04:29:39;11.25;;;8.68;;
49784;SDS011;35679;38.732;-121.358;2022-09-13T04:32:29;12.52;;;8.93;;
49784;SDS011;35679;38.732;-121.358;2022-09-13T04:35:18;11.57;;;8.70;;
49784;SDS011;35679;38.732;-121.358;2022-09-13T04:38:08;12.48;;;8.35;;
49784;SDS011;35679;38.732;-121.358;2022-09-13T04:40:58;11.75;;;8.77;;
49784;SDS011;35679;38.732;-121.358;2022-09-13T04:43:48;11.68;;;8.15;;
49784;SDS011;35679;38.732;-121.358;2022-09-13T04:46:38;12.05;;;8.60;;
49784;SDS011;35679;38.732;-121.358;2022-09-13T04:49:30;11.38;;;8.45;;
49784;SDS011;35679;38.732;-121.358;2022-09-13T04:52:19;12.63;;;8.35;;
49784;SDS011;35679;38.732;-121.358;2022-09-13T04:55:09;10.90;;;7.63;;
49784;SDS011;35679;38.732;-121.358;2022-09-13T04:57:58;10.00;;;7.15;;
49784;SDS011;35679;38.732;-121.358;2022-09-13T05:00:48;8.77;;;7.70;;
49784;SDS011;35679;38.732;-121.358;2022-09-13T05:03:39;9.73;;;7.20;;
49784;SDS011;35679;38.732;-121.358;2022-09-13T05:06:28;9.57;;;7.15;;
49784;SDS011;35679;38.732;-121.358;2022-09-13T05:09:18;7.90;;;6.13;;
49784;SDS011;35679;38.732;-121.358;2022-09-13T05:12:07;9.93;;;6.90;;
49784;SDS011;35679;38.732;-121.358;2022-09-13T05:14:56;9.48;;;6.22;;
49784;SDS011;35679;38.732;-121.358;2022-09-13T05:17:46;9.98;;;6.95;;
49784;SDS011;35679;38.732;-121.358;2022-09-13T05:20:35;10.38;;;6.90;;
49784;SDS011;35679;38.732;-121.358;2022-09-13T05:23:25;9.93;;;6.55;;
49784;SDS011;35679;38.732;-121.358;2022-09-13T05:26:16;8.70;;;6.20;;
49784;SDS011;35679;38.732;-121.358;2022-09-13T05:29:06;8.68;;;5.70;;
49784;SDS011;35679;38.732;-121.358;2022-09-13T05:31:55;9.18;;;6.28;;
49784;SDS011;35679;38.732;-121.358;2022-09-13T05:34:46;12.32;;;6.20;;
49784;SDS011;35679;38.732;-121.358;2022-09-13T05:37:35;10.55;;;5.85;;
49784;SDS011;35679;38.732;-121.358;2022-09-13T05:40:25;8.75;;;5.63;;
49784;SDS011;35679;38.732;-121.358;2022-09-13T05:43:14;8.10;;;5.97;;
49784;SDS011;35679;38.732;-121.358;2022-09-13T05:46:08;9.65;;;5.68;;
49784;SDS011;35679;38.732;-121.358;2022-09-13T05:49:00;11.13;;;5.68;;
49784;SDS011;35679;38.732;-121.358;2022-09-13T05:51:49;7.85;;;5.80;;
49784;SDS011;35679;38.732;-121.358;2022-09-13T05:54:38;7.95;;;5.45;;
49784;SDS011;35679;38.732;-121.358;2022-09-13T05:57:28;9.52;;;5.70;;
49784;SDS011;35679;38.732;-121.358;2022-09-13T06:00:17;10.18;;;5.70;;
49784;SDS011;35679;38.732;-121.358;2022-09-13T06:03:06;8.43;;;5.50;;
49784;SDS011;35679;38.732;-121.358;2022-09-13T06:05:56;8.98;;;5.57;;
49784;SDS011;35679;38.732;-121.358;2022-09-13T06:08:46;7.65;;;5.60;;
49784;SDS011;35679;38.732;-121.358;2022-09-13T06:11:36;6.47;;;5.20;;
49784;SDS011;35679;38.732;-121.358;2022-09-13T06:14:25;7.18;;;5.40;;
49784;SDS011;35679;38.732;-121.358;2022-09-13T06:17:15;7.60;;;5.07;;
49784;SDS011;35679;38.732;-121.358;2022-09-13T06:20:04;8.43;;;4.78;;
49784;SDS011;35679;38.732;-121.358;2022-09-13T06:22:54;8.73;;;5.25;;
49784;SDS011;35679;38.732;-121.358;2022-09-13T06:25:43;8.90;;;5.55;;
49784;SDS011;35679;38.732;-121.358;2022-09-13T06:28:33;7.43;;;4.88;;
49784;SDS011;35679;38.732;-121.358;2022-09-13T06:31:25;7.78;;;5.28;;
49784;SDS011;35679;38.732;-121.358;2022-09-13T06:34:16;8.45;;;4.82;;
49784;SDS011;35679;38.732;-121.358;2022-09-13T06:37:05;7.38;;;5.15;;
49784;SDS011;35679;38.732;-121.358;2022-09-13T06:39:55;8.52;;;4.78;;
49784;SDS011;35679;38.732;-121.358;2022-09-13T06:42:45;9.90;;;5.22;;
49784;SDS011;35679;38.732;-121.358;2022-09-13T06:45:34;7.07;;;4.50;;
49784;SDS011;35679;38.732;-121.358;2022-09-13T06:48:24;7.78;;;5.00;;
49784;SDS011;35679;38.732;-121.358;2022-09-13T06:51:16;7.80;;;5.07;;
49784;SDS011;35679;38.732;-121.358;2022-09-13T06:54:06;7.45;;;4.90;;
49784;SDS011;35679;38.732;-121.358;2022-09-13T06:56:57;6.28;;;4.65;;
49784;SDS011;35679;38.732;-121.358;2022-09-13T06:59:46;6.22;;;4.43;;
49784;SDS011;35679;38.732;-121.358;2022-09-13T07:02:36;10.18;;;5.25;;
49784;SDS011;35679;38.732;-121.358;2022-09-13T07:05:25;6.30;;;4.35;;
49784;SDS011;35679;38.732;-121.358;2022-09-13T07:08:15;7.85;;;4.25;;
49784;SDS011;35679;38.732;-121.358;2022-09-13T07:11:04;7.25;;;4.35;;
49784;SDS011;35679;38.732;-121.358;2022-09-13T07:13:55;8.57;;;4.85;;
49784;SDS011;35679;38.732;-121.358;2022-09-13T07:16:45;6.97;;;4.57;;
49784;SDS011;35679;38.732;-121.358;2022-09-13T07:19:35;7.22;;;5.13;;
49784;SDS011;35679;38.732;-121.358;2022-09-13T07:22:25;8.68;;;4.80;;
49784;SDS011;35679;38.732;-121.358;2022-09-13T07:25:15;6.57;;;4.70;;
49784;SDS011;35679;38.732;-121.358;2022-09-13T07:28:05;7.25;;;4.30;;
49784;SDS011;35679;38.732;-121.358;2022-09-13T07:30:54;7.18;;;4.78;;
49784;SDS011;35679;38.732;-121.358;2022-09-13T07:33:46;6.25;;;4.30;;
49784;SDS011;35679;38.732;-121.358;2022-09-13T07:36:36;8.75;;;4.78;;
49784;SDS011;35679;38.732;-121.358;2022-09-13T07:39:26;10.88;;;4.95;;
49784;SDS011;35679;38.732;-121.358;2022-09-13T07:42:16;7.07;;;4.22;;
49784;SDS011;35679;38.732;-121.358;2022-09-13T07:45:05;6.97;;;4.38;;
49784;SDS011;35679;38.732;-121.358;2022-09-13T07:47:55;8.13;;;4.65;;
49784;SDS011;35679;38.732;-121.358;2022-09-13T07:50:44;6.63;;;4.75;;
49784;SDS011;35679;38.732;-121.358;2022-09-13T07:53:45;6.68;;;4.72;;
49784;SDS011;35679;38.732;-121.358;2022-09-13T07:56:43;8.45;;;4.75;;
49784;SDS011;35679;38.732;-121.358;2022-09-13T07:59:32;8.73;;;4.40;;
49784;SDS011;35679;38.732;-121.358;2022-09-13T08:02:22;8.43;;;4.60;;
49784;SDS011;35679;38.732;-121.358;2022-09-13T08:05:11;8.25;;;4.75;;
49784;SDS011;35679;38.732;-121.358;2022-09-13T08:08:02;5.85;;;4.28;;
49784;SDS011;35679;38.732;-121.358;2022-09-13T08:10:51;6.88;;;4.40;;
49784;SDS011;35679;38.732;-121.358;2022-09-13T08:13:41;5.85;;;4.38;;
49784;SDS011;35679;38.732;-121.358;2022-09-13T08:16:30;6.90;;;4.22;;
49784;SDS011;35679;38.732;-121.358;2022-09-13T08:19:20;7.07;;;4.63;;
49784;SDS011;35679;38.732;-121.358;2022-09-13T08:22:10;6.53;;;4.60;;
49784;SDS011;35679;38.732;-121.358;2022-09-13T08:24:59;6.65;;;4.78;;
49784;SDS011;35679;38.732;-121.358;2022-09-13T08:27:48;6.43;;;4.35;;
49784;SDS011;35679;38.732;-121.358;2022-09-13T08:30:38;8.82;;;5.00;;
49784;SDS011;35679;38.732;-121.358;2022-09-13T08:33:28;7.65;;;4.85;;
49784;SDS011;35679;38.732;-121.358;2022-09-13T08:36:18;7.93;;;4.75;;
49784;SDS011;35679;38.732;-121.358;2022-09-13T08:39:11;5.70;;;4.68;;
49784;SDS011;35679;38.732;-121.358;2022-09-13T08:42:13;7.30;;;4.78;;
49784;SDS011;35679;38.732;-121.358;2022-09-13T08:45:09;8.02;;;4.63;;
49784;SDS011;35679;38.732;-121.358;2022-09-13T08:48:03;6.68;;;4.20;;
49784;SDS011;35679;38.732;-121.358;2022-09-13T08:51:02;6.88;;;4.60;;
49784;SDS011;35679;38.732;-121.358;2022-09-13T08:53:55;7.03;;;4.38;;
49784;SDS011;35679;38.732;-121.358;2022-09-13T09:05:53;8.40;;;4.70;;
49784;SDS011;35679;38.732;-121.358;2022-09-13T09:14:56;7.68;;;4.53;;
49784;SDS011;35679;38.732;-121.358;2022-09-13T09:20:50;6.13;;;4.15;;
49784;SDS011;35679;38.732;-121.358;2022-09-13T09:23:48;8.93;;;4.43;;
49784;SDS011;35679;38.732;-121.358;2022-09-13T09:26:39;7.20;;;4.75;;
49784;SDS011;35679;38.732;-121.358;2022-09-13T09:29:30;6.80;;;4.38;;
49784;SDS011;35679;38.732;-121.358;2022-09-13T09:38:35;7.10;;;4.80;;
49784;SDS011;35679;38.732;-121.358;2022-09-13T09:41:29;8.20;;;4.60;;
49784;SDS011;35679;38.732;-121.358;2022-09-13T09:44:24;9.20;;;4.60;;
49784;SDS011;35679;38.732;-121.358;2022-09-13T09:47:19;7.07;;;4.75;;
49784;SDS011;35679;38.732;-121.358;2022-09-13T09:53:17;7.35;;;4.50;;
49784;SDS011;35679;38.732;-121.358;2022-09-13T09:56:24;6.85;;;4.47;;
49784;SDS011;35679;38.732;-121.358;2022-09-13T09:59:26;6.45;;;4.35;;
49784;SDS011;35679;38.732;-121.358;2022-09-13T10:02:20;8.80;;;4.38;;
49784;SDS011;35679;38.732;-121.358;2022-09-13T10:05:10;8.35;;;4.80;;
49784;SDS011;35679;38.732;-121.358;2022-09-13T10:08:01;7.30;;;4.50;;
49784;SDS011;35679;38.732;-121.358;2022-09-13T10:10:53;8.15;;;4.60;;
49784;SDS011;35679;38.732;-121.358;2022-09-13T10:13:58;9.20;;;4.50;;
49784;SDS011;35679;38.732;-121.358;2022-09-13T10:16:49;5.90;;;4.57;;
49784;SDS011;35679;38.732;-121.358;2022-09-13T10:26:13;7.10;;;4.30;;
49784;SDS011;35679;38.732;-121.358;2022-09-13T10:29:07;5.90;;;4.80;;
49784;SDS011;35679;38.732;-121.358;2022-09-13T10:32:06;6.65;;;4.55;;
49784;SDS011;35679;38.732;-121.358;2022-09-13T10:35:06;6.78;;;4.47;;
49784;SDS011;35679;38.732;-121.358;2022-09-13T10:38:14;5.97;;;4.40;;
49784;SDS011;35679;38.732;-121.358;2022-09-13T10:41:22;8.48;;;4.72;;
49784;SDS011;35679;38.732;-121.358;2022-09-13T10:47:38;9.00;;;4.82;;
49784;SDS011;35679;38.732;-121.358;2022-09-13T10:50:35;7.22;;;4.25;;
49784;SDS011;35679;38.732;-121.358;2022-09-13T10:53:29;6.50;;;4.60;;
49784;SDS011;35679;38.732;-121.358;2022-09-13T10:56:20;7.63;;;4.53;;
49784;SDS011;35679;38.732;-121.358;2022-09-13T10:59:23;5.82;;;4.30;;
49784;SDS011;35679;38.732;-121.358;2022-09-13T11:14:53;10.57;;;4.13;;
49784;SDS011;35679;38.732;-121.358;2022-09-13T11:21:12;7.00;;;4.40;;
49784;SDS011;35679;38.732;-121.358;2022-09-13T11:24:34;8.60;;;4.47;;
49784;SDS011;35679;38.732;-121.358;2022-09-13T11:31:25;9.20;;;4.15;;
49784;SDS011;35679;38.732;-121.358;2022-09-13T11:43:41;8.23;;;4.75;;
49784;SDS011;35679;38.732;-121.358;2022-09-13T11:46:42;7.68;;;4.03;;
49784;SDS011;35679;38.732;-121.358;2022-09-13T11:53:18;9.90;;;4.47;;
49784;SDS011;35679;38.732;-121.358;2022-09-13T11:56:37;8.77;;;4.50;;
49784;SDS011;35679;38.732;-121.358;2022-09-13T11:59:35;7.43;;;4.15;;
49784;SDS011;35679;38.732;-121.358;2022-09-13T12:05:25;6.15;;;4.20;;
49784;SDS011;35679;38.732;-121.358;2022-09-13T12:08:21;7.47;;;4.00;;
49784;SDS011;35679;38.732;-121.358;2022-09-13T12:11:22;9.45;;;4.50;;
49784;SDS011;35679;38.732;-121.358;2022-09-13T12:14:18;5.60;;;3.42;;
49784;SDS011;35679;38.732;-121.358;2022-09-13T12:17:14;6.72;;;4.28;;
49784;SDS011;35679;38.732;-121.358;2022-09-13T12:20:20;5.60;;;3.65;;
49784;SDS011;35679;38.732;-121.358;2022-09-13T12:23:46;9.70;;;4.03;;
49784;SDS011;35679;38.732;-121.358;2022-09-13T12:27:37;7.72;;;4.18;;
49784;SDS011;35679;38.732;-121.358;2022-09-13T12:30:16;7.57;;;4.07;;
49784;SDS011;35679;38.732;-121.358;2022-09-13T12:33:11;6.07;;;4.28;;
49784;SDS011;35679;38.732;-121.358;2022-09-13T12:39:25;9.07;;;4.00;;
49784;SDS011;35679;38.732;-121.358;2022-09-13T12:48:55;6.97;;;3.40;;
49784;SDS011;35679;38.732;-121.358;2022-09-13T12:52:25;9.75;;;3.92;;
49784;SDS011;35679;38.732;-121.358;2022-09-13T13:01:36;5.28;;;3.80;;
49784;SDS011;35679;38.732;-121.358;2022-09-13T13:04:27;6.32;;;3.72;;
49784;SDS011;35679;38.732;-121.358;2022-09-13T13:07:21;6.00;;;3.83;;
49784;SDS011;35679;38.732;-121.358;2022-09-13T13:10:30;6.97;;;3.83;;
49784;SDS011;35679;38.732;-121.358;2022-09-13T13:13:21;6.70;;;3.30;;
49784;SDS011;35679;38.732;-121.358;2022-09-13T13:16:28;6.68;;;4.03;;
49784;SDS011;35679;38.732;-121.358;2022-09-13T13:19:32;7.10;;;3.78;;
49784;SDS011;35679;38.732;-121.358;2022-09-13T13:25:32;5.82;;;3.60;;
49784;SDS011;35679;38.732;-121.358;2022-09-13T13:31:35;7.63;;;3.95;;
49784;SDS011;35679;38.732;-121.358;2022-09-13T13:37:25;6.00;;;3.90;;
49784;SDS011;35679;38.732;-121.358;2022-09-13T13:40:21;6.68;;;3.78;;
49784;SDS011;35679;38.732;-121.358;2022-09-13T13:43:32;5.78;;;3.60;;
49784;SDS011;35679;38.732;-121.358;2022-09-13T13:46:24;6.85;;;4.78;;
49784;SDS011;35679;38.732;-121.358;2022-09-13T13:58:14;8.35;;;3.80;;
49784;SDS011;35679;38.732;-121.358;2022-09-13T14:01:16;9.95;;;4.35;;
49784;SDS011;35679;38.732;-121.358;2022-09-13T14:07:26;6.63;;;4.15;;
49784;SDS011;35679;38.732;-121.358;2022-09-13T14:17:00;6.47;;;3.58;;
49784;SDS011;35679;38.732;-121.358;2022-09-13T14:23:10;7.63;;;4.13;;
49784;SDS011;35679;38.732;-121.358;2022-09-13T14:28:55;8.45;;;3.95;;
49784;SDS011;35679;38.732;-121.358;2022-09-13T14:31:48;6.28;;;3.80;;
49784;SDS011;35679;38.732;-121.358;2022-09-13T14:34:49;5.80;;;3.97;;
49784;SDS011;35679;38.732;-121.358;2022-09-13T14:38:22;5.30;;;3.72;;
49784;SDS011;35679;38.732;-121.358;2022-09-13T14:41:13;6.03;;;3.80;;
49784;SDS011;35679;38.732;-121.358;2022-09-13T14:44:19;8.65;;;3.92;;
49784;SDS011;35679;38.732;-121.358;2022-09-13T14:47:17;8.68;;;4.45;;
49784;SDS011;35679;38.732;-121.358;2022-09-13T14:50:22;6.38;;;3.80;;
49784;SDS011;35679;38.732;-121.358;2022-09-13T14:53:21;8.32;;;4.35;;
49784;SDS011;35679;38.732;-121.358;2022-09-13T14:56:16;8.27;;;4.28;;
49784;SDS011;35679;38.732;-121.358;2022-09-13T14:59:40;6.78;;;4.20;;
49784;SDS011;35679;38.732;-121.358;2022-09-13T15:02:36;9.73;;;3.78;;
49784;SDS011;35679;38.732;-121.358;2022-09-13T15:05:32;6.38;;;3.97;;
49784;SDS011;35679;38.732;-121.358;2022-09-13T15:11:29;8.48;;;3.92;;
49784;SDS011;35679;38.732;-121.358;2022-09-13T15:17:15;5.97;;;3.70;;
49784;SDS011;35679;38.732;-121.358;2022-09-13T15:20:11;5.88;;;3.85;;
49784;SDS011;35679;38.732;-121.358;2022-09-13T15:23:09;8.85;;;4.35;;
49784;SDS011;35679;38.732;-121.358;2022-09-13T15:26:24;7.40;;;4.40;;
49784;SDS011;35679;38.732;-121.358;2022-09-13T15:29:16;10.65;;;4.20;;
49784;SDS011;35679;38.732;-121.358;2022-09-13T15:32:18;5.03;;;4.18;;
49784;SDS011;35679;38.732;-121.358;2022-09-13T15:35:21;6.38;;;3.70;;
49784;SDS011;35679;38.732;-121.358;2022-09-13T15:38:28;9.20;;;4.60;;
49784;SDS011;35679;38.732;-121.358;2022-09-13T15:41:19;5.90;;;4.30;;
49784;SDS011;35679;38.732;-121.358;2022-09-13T15:44:09;7.88;;;4.30;;
49784;SDS011;35679;38.732;-121.358;2022-09-13T15:46:59;6.53;;;3.83;;
49784;SDS011;35679;38.732;-121.358;2022-09-13T15:49:51;7.50;;;3.97;;
49784;SDS011;35679;38.732;-121.358;2022-09-13T15:52:41;4.05;;;3.65;;
49784;SDS011;35679;38.732;-121.358;2022-09-13T15:55:30;5.53;;;3.65;;
49784;SDS011;35679;38.732;-121.358;2022-09-13T15:58:20;5.35;;;3.75;;
49784;SDS011;35679;38.732;-121.358;2022-09-13T16:01:12;6.22;;;4.07;;
49784;SDS011;35679;38.732;-121.358;2022-09-13T16:04:03;5.28;;;4.20;;
49784;SDS011;35679;38.732;-121.358;2022-09-13T16:06:53;6.70;;;4.03;;
49784;SDS011;35679;38.732;-121.358;2022-09-13T16:09:43;8.43;;;4.15;;
49784;SDS011;35679;38.732;-121.358;2022-09-13T16:12:33;6.30;;;4.15;;
49784;SDS011;35679;38.732;-121.358;2022-09-13T16:15:23;6.35;;;3.92;;
49784;SDS011;35679;38.732;-121.358;2022-09-13T16:18:16;7.20;;;4.45;;
49784;SDS011;35679;38.732;-121.358;2022-09-13T16:21:06;6.68;;;3.90;;
49784;SDS011;35679;38.732;-121.358;2022-09-13T16:23:55;5.43;;;4.15;;
49784;SDS011;35679;38.732;-121.358;2022-09-13T16:26:45;6.22;;;4.07;;
49784;SDS011;35679;38.732;-121.358;2022-09-13T16:29:34;5.15;;;4.15;;
49784;SDS011;35679;38.732;-121.358;2022-09-13T16:32:24;5.82;;;4.47;;
49784;SDS011;35679;38.732;-121.358;2022-09-13T16:35:13;6.18;;;4.03;;
49784;SDS011;35679;38.732;-121.358;2022-09-13T16:38:04;8.00;;;4.50;;
49784;SDS011;35679;38.732;-121.358;2022-09-13T16:40:53;5.40;;;4.30;;
49784;SDS011;35679;38.732;-121.358;2022-09-13T16:43:43;6.15;;;4.00;;
49784;SDS011;35679;38.732;-121.358;2022-09-13T16:46:32;6.18;;;4.00;;
49784;SDS011;35679;38.732;-121.358;2022-09-13T16:49:23;6.53;;;4.20;;
49784;SDS011;35679;38.732;-121.358;2022-09-13T16:52:13;6.43;;;3.78;;
49784;SDS011;35679;38.732;-121.358;2022-09-13T16:55:03;6.10;;;4.05;;
49784;SDS011;35679;38.732;-121.358;2022-09-13T16:57:53;5.30;;;4.25;;
49784;SDS011;35679;38.732;-121.358;2022-09-13T17:00:43;4.85;;;4.20;;
49784;SDS011;35679;38.732;-121.358;2022-09-13T17:03:33;6.45;;;4.07;;
49784;SDS011;35679;38.732;-121.358;2022-09-13T17:06:24;5.88;;;4.10;;
49784;SDS011;35679;38.732;-121.358;2022-09-13T17:09:15;6.38;;;3.80;;
49784;SDS011;35679;38.732;-121.358;2022-09-13T17:12:05;5.88;;;4.07;;
49784;SDS011;35679;38.732;-121.358;2022-09-13T17:14:56;4.32;;;3.78;;
49784;SDS011;35679;38.732;-121.358;2022-09-13T17:17:46;5.95;;;4.20;;
49784;SDS011;35679;38.732;-121.358;2022-09-13T17:20:41;4.55;;;3.60;;
49784;SDS011;35679;38.732;-121.358;2022-09-13T17:23:31;5.38;;;3.83;;
49784;SDS011;35679;38.732;-121.358;2022-09-13T17:26:21;5.95;;;3.95;;
49784;SDS011;35679;38.732;-121.358;2022-09-13T17:29:11;5.32;;;4.05;;
49784;SDS011;35679;38.732;-121.358;2022-09-13T17:32:02;4.88;;;3.80;;
49784;SDS011;35679;38.732;-121.358;2022-09-13T17:34:53;6.53;;;3.97;;
49784;SDS011;35679;38.732;-121.358;2022-09-13T17:37:43;3.75;;;3.45;;
49784;SDS011;35679;38.732;-121.358;2022-09-13T17:40:32;5.05;;;3.75;;
49784;SDS011;35679;38.732;-121.358;2022-09-13T17:43:21;4.50;;;4.10;;
49784;SDS011;35679;38.732;-121.358;2022-09-13T17:46:21;5.50;;;3.88;;
49784;SDS011;35679;38.732;-121.358;2022-09-13T17:49:12;6.43;;;3.72;;
49784;SDS011;35679;38.732;-121.358;2022-09-13T17:52:02;4.65;;;4.15;;
49784;SDS011;35679;38.732;-121.358;2022-09-13T17:54:51;6.28;;;3.67;;
49784;SDS011;35679;38.732;-121.358;2022-09-13T17:57:41;4.72;;;3.83;;
49784;SDS011;35679;38.732;-121.358;2022-09-13T18:00:31;4.68;;;3.50;;
49784;SDS011;35679;38.732;-121.358;2022-09-13T18:03:20;5.95;;;3.53;;
49784;SDS011;35679;38.732;-121.358;2022-09-13T18:06:10;6.05;;;3.85;;
49784;SDS011;35679;38.732;-121.358;2022-09-13T18:09:02;4.47;;;3.87;;
49784;SDS011;35679;38.732;-121.358;2022-09-13T18:11:51;4.50;;;3.53;;
49784;SDS011;35679;38.732;-121.358;2022-09-13T18:14:41;4.88;;;3.70;;
49784;SDS011;35679;38.732;-121.358;2022-09-13T18:17:30;4.85;;;3.88;;
49784;SDS011;35679;38.732;-121.358;2022-09-13T18:20:20;4.32;;;3.88;;
49784;SDS011;35679;38.732;-121.358;2022-09-13T18:23:09;5.07;;;3.90;;
49784;SDS011;35679;38.732;-121.358;2022-09-13T18:26:01;4.55;;;3.42;;
49784;SDS011;35679;38.732;-121.358;2022-09-13T18:28:58;4.50;;;3.65;;
49784;SDS011;35679;38.732;-121.358;2022-09-13T18:31:56;7.15;;;3.75;;
49784;SDS011;35679;38.732;-121.358;2022-09-13T18:34:46;6.15;;;3.70;;
49784;SDS011;35679;38.732;-121.358;2022-09-13T18:37:35;3.83;;;3.13;;
49784;SDS011;35679;38.732;-121.358;2022-09-13T18:40:25;3.78;;;3.40;;
49784;SDS011;35679;38.732;-121.358;2022-09-13T18:43:15;4.18;;;3.35;;
49784;SDS011;35679;38.732;-121.358;2022-09-13T18:46:05;4.30;;;3.28;;
49784;SDS011;35679;38.732;-121.358;2022-09-13T18:48:57;5.47;;;3.50;;
49784;SDS011;35679;38.732;-121.358;2022-09-13T18:51:47;6.30;;;3.72;;
49784;SDS011;35679;38.732;-121.358;2022-09-13T18:54:37;6.00;;;3.47;;
49784;SDS011;35679;38.732;-121.358;2022-09-13T18:57:26;3.42;;;3.10;;
49784;SDS011;35679;38.732;-121.358;2022-09-13T19:00:17;4.70;;;3.47;;
49784;SDS011;35679;38.732;-121.358;2022-09-13T19:03:08;4.70;;;3.30;;
49784;SDS011;35679;38.732;-121.358;2022-09-13T19:06:09;4.40;;;3.20;;
49784;SDS011;35679;38.732;-121.358;2022-09-13T19:09:00;3.35;;;2.90;;
49784;SDS011;35679;38.732;-121.358;2022-09-13T19:11:51;4.07;;;3.00;;
49784;SDS011;35679;38.732;-121.358;2022-09-13T19:14:41;5.10;;;3.10;;
49784;SDS011;35679;38.732;-121.358;2022-09-13T19:17:31;3.72;;;2.97;;
49784;SDS011;35679;38.732;-121.358;2022-09-13T19:20:22;6.45;;;3.20;;
49784;SDS011;35679;38.732;-121.358;2022-09-13T19:23:12;3.58;;;2.67;;
49784;SDS011;35679;38.732;-121.358;2022-09-13T19:26:08;3.53;;;3.22;;
49784;SDS011;35679;38.732;-121.358;2022-09-13T19:29:06;3.83;;;2.72;;
49784;SDS011;35679;38.732;-121.358;2022-09-13T19:31:58;3.80;;;2.90;;
49784;SDS011;35679;38.732;-121.358;2022-09-13T19:34:47;4.20;;;3.28;;
49784;SDS011;35679;38.732;-121.358;2022-09-13T19:37:36;3.75;;;3.00;;
49784;SDS011;35679;38.732;-121.358;2022-09-13T19:40:26;4.43;;;3.03;;